sensor_id;sensor_type;location;lat;lon;timestamp;P1;durP1;ratioP1;P2;durP2;ratioP2
32138;SDS011;18644;48.700;9.210;2023-04-19T00:00:47;6.30;;;5.07;;
32138;SDS011;18644;48.700;9.210;2023-04-19T00:03:16;8.10;;;5.25;;
32138;SDS011;18644;48.700;9.210;2023-04-19T00:05:43;7.63;;;5.30;;
32138;SDS011;18644;48.700;9.210;2023-04-19T00:08:10;10.73;;;5.40;;
32138;SDS011;18644;48.700;9.210;2023-04-19T00:10:36;7.53;;;5.15;;
32138;SDS011;18644;48.700;9.210;2023-04-19T00:13:04;8.43;;;5.88;;
32138;SDS011;18644;48.700;9.210;2023-04-19T00:15:31;7.22;;;5.10;;
32138;SDS011;18644;48.700;9.210;2023-04-19T00:17:59;7.50;;;5.55;;
32138;SDS011;18644;48.700;9.210;2023-04-19T00:20:27;6.15;;;4.53;;
32138;SDS011;18644;48.700;9.210;2023-04-19T00:22:54;6.47;;;5.18;;
32138;SDS011;18644;48.700;9.210;2023-04-19T00:25:22;6.90;;;5.50;;
32138;SDS011;18644;48.700;9.210;2023-04-19T00:27:49;6.35;;;4.70;;
32138;SDS011;18644;48.700;9.210;2023-04-19T00:30:16;6.55;;;4.78;;
32138;SDS011;18644;48.700;9.210;2023-04-19T00:32:43;7.25;;;5.22;;
32138;SDS011;18644;48.700;9.210;2023-04-19T00:35:10;8.77;;;5.20;;
32138;SDS011;18644;48.700;9.210;2023-04-19T00:37:38;6.30;;;5.10;;
32138;SDS011;18644;48.700;9.210;2023-04-19T00:40:05;8.40;;;5.53;;
32138;SDS011;18644;48.700;9.210;2023-04-19T00:42:34;6.38;;;5.15;;
32138;SDS011;18644;48.700;9.210;2023-04-19T00:45:01;7.35;;;5.53;;
32138;SDS011;18644;48.700;9.210;2023-04-19T00:47:28;7.35;;;5.38;;
32138;SDS011;18644;48.700;9.210;2023-04-19T00:49:55;6.55;;;5.45;;
32138;SDS011;18644;48.700;9.210;2023-04-19T00:52:22;6.65;;;5.45;;
32138;SDS011;18644;48.700;9.210;2023-04-19T00:54:51;10.07;;;5.53;;
32138;SDS011;18644;48.700;9.210;2023-04-19T00:57:20;7.80;;;5.68;;
32138;SDS011;18644;48.700;9.210;2023-04-19T00:59:47;7.00;;;5.88;;
32138;SDS011;18644;48.700;9.210;2023-04-19T01:02:13;8.18;;;5.45;;
32138;SDS011;18644;48.700;9.210;2023-04-19T01:04:40;9.05;;;5.80;;
32138;SDS011;18644;48.700;9.210;2023-04-19T01:07:07;7.32;;;5.25;;
32138;SDS011;18644;48.700;9.210;2023-04-19T01:09:34;7.22;;;5.78;;
32138;SDS011;18644;48.700;9.210;2023-04-19T01:12:07;8.32;;;5.68;;
32138;SDS011;18644;48.700;9.210;2023-04-19T01:14:34;7.30;;;5.15;;
32138;SDS011;18644;48.700;9.210;2023-04-19T01:17:01;7.30;;;5.25;;
32138;SDS011;18644;48.700;9.210;2023-04-19T01:19:27;7.68;;;5.47;;
32138;SDS011;18644;48.700;9.210;2023-04-19T01:21:55;7.95;;;6.15;;
32138;SDS011;18644;48.700;9.210;2023-04-19T01:24:23;7.05;;;5.43;;
32138;SDS011;18644;48.700;9.210;2023-04-19T01:26:50;7.82;;;5.22;;
32138;SDS011;18644;48.700;9.210;2023-04-19T01:29:17;8.75;;;5.93;;
32138;SDS011;18644;48.700;9.210;2023-04-19T01:31:46;6.53;;;5.10;;
32138;SDS011;18644;48.700;9.210;2023-04-19T01:34:15;7.80;;;6.05;;
32138;SDS011;18644;48.700;9.210;2023-04-19T01:36:42;6.82;;;5.35;;
32138;SDS011;18644;48.700;9.210;2023-04-19T01:39:09;7.50;;;5.43;;
32138;SDS011;18644;48.700;9.210;2023-04-19T01:41:37;7.32;;;5.50;;
32138;SDS011;18644;48.700;9.210;2023-04-19T01:44:04;7.50;;;5.32;;
32138;SDS011;18644;48.700;9.210;2023-04-19T01:46:31;8.00;;;6.03;;
32138;SDS011;18644;48.700;9.210;2023-04-19T01:48:58;8.95;;;6.25;;
32138;SDS011;18644;48.700;9.210;2023-04-19T01:51:24;7.93;;;5.90;;
32138;SDS011;18644;48.700;9.210;2023-04-19T01:53:51;9.40;;;6.45;;
32138;SDS011;18644;48.700;9.210;2023-04-19T01:56:18;8.00;;;5.82;;
32138;SDS011;18644;48.700;9.210;2023-04-19T01:58:47;7.75;;;5.75;;
32138;SDS011;18644;48.700;9.210;2023-04-19T02:01:13;7.60;;;5.88;;
32138;SDS011;18644;48.700;9.210;2023-04-19T02:03:40;11.10;;;6.05;;
32138;SDS011;18644;48.700;9.210;2023-04-19T02:06:09;6.97;;;5.68;;
32138;SDS011;18644;48.700;9.210;2023-04-19T02:08:37;9.50;;;5.95;;
32138;SDS011;18644;48.700;9.210;2023-04-19T02:11:05;9.05;;;6.35;;
32138;SDS011;18644;48.700;9.210;2023-04-19T02:13:33;7.97;;;5.63;;
32138;SDS011;18644;48.700;9.210;2023-04-19T02:16:02;7.63;;;5.72;;
32138;SDS011;18644;48.700;9.210;2023-04-19T02:18:30;7.25;;;5.47;;
32138;SDS011;18644;48.700;9.210;2023-04-19T02:20:57;9.80;;;6.45;;
32138;SDS011;18644;48.700;9.210;2023-04-19T02:23:24;6.70;;;5.57;;
32138;SDS011;18644;48.700;9.210;2023-04-19T02:25:51;9.32;;;6.00;;
32138;SDS011;18644;48.700;9.210;2023-04-19T02:28:18;10.40;;;6.97;;
32138;SDS011;18644;48.700;9.210;2023-04-19T02:30:45;10.35;;;6.95;;
32138;SDS011;18644;48.700;9.210;2023-04-19T02:33:13;7.80;;;5.93;;
32138;SDS011;18644;48.700;9.210;2023-04-19T02:35:41;8.63;;;6.00;;
32138;SDS011;18644;48.700;9.210;2023-04-19T02:38:07;7.10;;;5.22;;
32138;SDS011;18644;48.700;9.210;2023-04-19T02:40:34;7.90;;;6.28;;
32138;SDS011;18644;48.700;9.210;2023-04-19T02:43:02;10.25;;;6.85;;
32138;SDS011;18644;48.700;9.210;2023-04-19T02:45:29;8.45;;;5.72;;
32138;SDS011;18644;48.700;9.210;2023-04-19T02:47:56;9.18;;;6.43;;
32138;SDS011;18644;48.700;9.210;2023-04-19T02:50:25;6.85;;;5.55;;
32138;SDS011;18644;48.700;9.210;2023-04-19T02:52:52;7.95;;;6.07;;
32138;SDS011;18644;48.700;9.210;2023-04-19T02:55:19;10.25;;;6.03;;
32138;SDS011;18644;48.700;9.210;2023-04-19T02:57:46;7.47;;;5.90;;
32138;SDS011;18644;48.700;9.210;2023-04-19T03:00:13;8.48;;;6.50;;
32138;SDS011;18644;48.700;9.210;2023-04-19T03:02:41;9.35;;;6.75;;
32138;SDS011;18644;48.700;9.210;2023-04-19T03:05:09;9.93;;;6.32;;
32138;SDS011;18644;48.700;9.210;2023-04-19T03:07:37;9.48;;;6.60;;
32138;SDS011;18644;48.700;9.210;2023-04-19T03:10:04;9.65;;;6.95;;
32138;SDS011;18644;48.700;9.210;2023-04-19T03:12:33;9.15;;;6.53;;
32138;SDS011;18644;48.700;9.210;2023-04-19T03:15:00;8.55;;;6.28;;
32138;SDS011;18644;48.700;9.210;2023-04-19T03:17:27;9.65;;;6.78;;
32138;SDS011;18644;48.700;9.210;2023-04-19T03:19:58;9.00;;;6.80;;
32138;SDS011;18644;48.700;9.210;2023-04-19T03:22:31;10.70;;;7.25;;
32138;SDS011;18644;48.700;9.210;2023-04-19T03:25:00;9.75;;;6.40;;
32138;SDS011;18644;48.700;9.210;2023-04-19T03:27:27;9.02;;;7.18;;
32138;SDS011;18644;48.700;9.210;2023-04-19T03:29:54;9.90;;;7.05;;
32138;SDS011;18644;48.700;9.210;2023-04-19T03:32:21;10.93;;;6.68;;
32138;SDS011;18644;48.700;9.210;2023-04-19T03:34:48;9.68;;;7.03;;
32138;SDS011;18644;48.700;9.210;2023-04-19T03:37:15;8.52;;;6.10;;
32138;SDS011;18644;48.700;9.210;2023-04-19T03:39:42;8.77;;;6.47;;
32138;SDS011;18644;48.700;9.210;2023-04-19T03:42:10;9.82;;;6.75;;
32138;SDS011;18644;48.700;9.210;2023-04-19T03:44:37;10.18;;;7.15;;
32138;SDS011;18644;48.700;9.210;2023-04-19T03:47:04;9.48;;;7.15;;
32138;SDS011;18644;48.700;9.210;2023-04-19T03:49:31;9.50;;;6.55;;
32138;SDS011;18644;48.700;9.210;2023-04-19T03:51:57;8.65;;;6.53;;
32138;SDS011;18644;48.700;9.210;2023-04-19T03:54:24;9.05;;;6.43;;
32138;SDS011;18644;48.700;9.210;2023-04-19T03:56:51;8.32;;;6.68;;
32138;SDS011;18644;48.700;9.210;2023-04-19T03:59:19;9.88;;;6.70;;
32138;SDS011;18644;48.700;9.210;2023-04-19T04:01:46;9.25;;;6.90;;
32138;SDS011;18644;48.700;9.210;2023-04-19T04:04:13;11.90;;;6.88;;
32138;SDS011;18644;48.700;9.210;2023-04-19T04:06:40;8.90;;;6.85;;
32138;SDS011;18644;48.700;9.210;2023-04-19T04:09:07;7.65;;;6.18;;
32138;SDS011;18644;48.700;9.210;2023-04-19T04:11:34;9.50;;;7.15;;
32138;SDS011;18644;48.700;9.210;2023-04-19T04:14:00;9.70;;;6.93;;
32138;SDS011;18644;48.700;9.210;2023-04-19T04:16:29;10.80;;;7.00;;
32138;SDS011;18644;48.700;9.210;2023-04-19T04:18:55;10.70;;;7.43;;
32138;SDS011;18644;48.700;9.210;2023-04-19T04:21:22;13.93;;;6.72;;
32138;SDS011;18644;48.700;9.210;2023-04-19T04:23:51;8.77;;;7.13;;
32138;SDS011;18644;48.700;9.210;2023-04-19T04:26:17;10.07;;;6.95;;
32138;SDS011;18644;48.700;9.210;2023-04-19T04:28:45;9.57;;;6.93;;
32138;SDS011;18644;48.700;9.210;2023-04-19T04:31:12;9.05;;;6.78;;
32138;SDS011;18644;48.700;9.210;2023-04-19T04:33:43;9.93;;;6.53;;
32138;SDS011;18644;48.700;9.210;2023-04-19T04:36:10;10.27;;;7.03;;
32138;SDS011;18644;48.700;9.210;2023-04-19T04:38:37;11.23;;;7.63;;
32138;SDS011;18644;48.700;9.210;2023-04-19T04:41:04;12.10;;;8.30;;
32138;SDS011;18644;48.700;9.210;2023-04-19T04:43:32;10.90;;;7.70;;
32138;SDS011;18644;48.700;9.210;2023-04-19T04:45:59;12.07;;;7.70;;
32138;SDS011;18644;48.700;9.210;2023-04-19T04:48:28;10.52;;;7.45;;
32138;SDS011;18644;48.700;9.210;2023-04-19T04:50:56;11.05;;;7.75;;
32138;SDS011;18644;48.700;9.210;2023-04-19T04:53:24;10.38;;;7.40;;
32138;SDS011;18644;48.700;9.210;2023-04-19T04:55:51;11.63;;;7.38;;
32138;SDS011;18644;48.700;9.210;2023-04-19T04:58:19;12.35;;;7.65;;
32138;SDS011;18644;48.700;9.210;2023-04-19T05:00:46;11.60;;;7.80;;
32138;SDS011;18644;48.700;9.210;2023-04-19T05:03:13;11.57;;;7.63;;
32138;SDS011;18644;48.700;9.210;2023-04-19T05:05:40;11.02;;;7.82;;
32138;SDS011;18644;48.700;9.210;2023-04-19T05:08:08;9.82;;;7.68;;
32138;SDS011;18644;48.700;9.210;2023-04-19T05:10:35;10.48;;;7.18;;
32138;SDS011;18644;48.700;9.210;2023-04-19T05:13:02;11.98;;;7.68;;
32138;SDS011;18644;48.700;9.210;2023-04-19T05:15:29;10.85;;;7.80;;
32138;SDS011;18644;48.700;9.210;2023-04-19T05:17:56;10.15;;;7.72;;
32138;SDS011;18644;48.700;9.210;2023-04-19T05:20:23;11.20;;;7.88;;
32138;SDS011;18644;48.700;9.210;2023-04-19T05:22:55;9.45;;;7.43;;
32138;SDS011;18644;48.700;9.210;2023-04-19T05:25:24;12.27;;;7.75;;
32138;SDS011;18644;48.700;9.210;2023-04-19T05:27:51;12.32;;;8.40;;
32138;SDS011;18644;48.700;9.210;2023-04-19T05:30:18;14.85;;;8.35;;
32138;SDS011;18644;48.700;9.210;2023-04-19T05:32:45;10.82;;;8.00;;
32138;SDS011;18644;48.700;9.210;2023-04-19T05:35:12;10.77;;;7.88;;
32138;SDS011;18644;48.700;9.210;2023-04-19T05:37:39;10.23;;;8.30;;
32138;SDS011;18644;48.700;9.210;2023-04-19T05:40:06;10.10;;;8.02;;
32138;SDS011;18644;48.700;9.210;2023-04-19T05:42:36;12.75;;;8.23;;
32138;SDS011;18644;48.700;9.210;2023-04-19T05:45:04;12.77;;;8.85;;
32138;SDS011;18644;48.700;9.210;2023-04-19T05:47:32;11.48;;;8.05;;
32138;SDS011;18644;48.700;9.210;2023-04-19T05:49:58;13.73;;;8.48;;
32138;SDS011;18644;48.700;9.210;2023-04-19T05:52:25;13.05;;;8.00;;
32138;SDS011;18644;48.700;9.210;2023-04-19T05:54:52;12.25;;;8.30;;
32138;SDS011;18644;48.700;9.210;2023-04-19T05:57:19;12.73;;;8.68;;
32138;SDS011;18644;48.700;9.210;2023-04-19T05:59:47;10.40;;;7.97;;
32138;SDS011;18644;48.700;9.210;2023-04-19T06:02:14;11.55;;;8.68;;
32138;SDS011;18644;48.700;9.210;2023-04-19T06:04:41;10.50;;;8.05;;
32138;SDS011;18644;48.700;9.210;2023-04-19T06:07:08;11.35;;;7.63;;
32138;SDS011;18644;48.700;9.210;2023-04-19T06:09:35;11.98;;;7.95;;
32138;SDS011;18644;48.700;9.210;2023-04-19T06:12:02;9.95;;;7.68;;
32138;SDS011;18644;48.700;9.210;2023-04-19T06:14:29;10.73;;;7.85;;
32138;SDS011;18644;48.700;9.210;2023-04-19T06:16:57;14.27;;;8.90;;
32138;SDS011;18644;48.700;9.210;2023-04-19T06:19:24;8.15;;;7.03;;
32138;SDS011;18644;48.700;9.210;2023-04-19T06:21:51;12.73;;;8.13;;
32138;SDS011;18644;48.700;9.210;2023-04-19T06:24:18;11.38;;;7.32;;
32138;SDS011;18644;48.700;9.210;2023-04-19T06:26:45;10.80;;;8.45;;
32138;SDS011;18644;48.700;9.210;2023-04-19T06:29:13;13.30;;;8.60;;
32138;SDS011;18644;48.700;9.210;2023-04-19T06:31:40;9.93;;;7.53;;
32138;SDS011;18644;48.700;9.210;2023-04-19T06:34:09;10.50;;;7.75;;
32138;SDS011;18644;48.700;9.210;2023-04-19T06:36:35;11.65;;;8.00;;
32138;SDS011;18644;48.700;9.210;2023-04-19T06:39:02;11.00;;;8.30;;
32138;SDS011;18644;48.700;9.210;2023-04-19T06:41:29;9.30;;;7.13;;
32138;SDS011;18644;48.700;9.210;2023-04-19T06:43:56;11.13;;;8.30;;
32138;SDS011;18644;48.700;9.210;2023-04-19T06:46:23;9.50;;;6.72;;
32138;SDS011;18644;48.700;9.210;2023-04-19T06:48:51;10.77;;;7.63;;
32138;SDS011;18644;48.700;9.210;2023-04-19T06:51:19;11.10;;;7.63;;
32138;SDS011;18644;48.700;9.210;2023-04-19T06:53:46;11.35;;;8.05;;
32138;SDS011;18644;48.700;9.210;2023-04-19T06:56:14;11.05;;;7.38;;
32138;SDS011;18644;48.700;9.210;2023-04-19T06:58:41;12.98;;;7.75;;
32138;SDS011;18644;48.700;9.210;2023-04-19T07:01:08;11.50;;;7.38;;
32138;SDS011;18644;48.700;9.210;2023-04-19T07:03:36;9.05;;;6.93;;
32138;SDS011;18644;48.700;9.210;2023-04-19T07:06:04;9.45;;;7.35;;
32138;SDS011;18644;48.700;9.210;2023-04-19T07:08:32;10.82;;;7.20;;
32138;SDS011;18644;48.700;9.210;2023-04-19T07:10:59;12.65;;;7.45;;
32138;SDS011;18644;48.700;9.210;2023-04-19T07:13:26;9.77;;;6.95;;
32138;SDS011;18644;48.700;9.210;2023-04-19T07:15:53;9.70;;;6.88;;
32138;SDS011;18644;48.700;9.210;2023-04-19T07:18:20;11.65;;;7.82;;
32138;SDS011;18644;48.700;9.210;2023-04-19T07:20:47;9.00;;;6.78;;
32138;SDS011;18644;48.700;9.210;2023-04-19T07:23:14;12.25;;;7.78;;
32138;SDS011;18644;48.700;9.210;2023-04-19T07:25:42;10.57;;;8.07;;
32138;SDS011;18644;48.700;9.210;2023-04-19T07:28:09;11.95;;;6.72;;
32138;SDS011;18644;48.700;9.210;2023-04-19T07:30:36;9.75;;;7.40;;
32138;SDS011;18644;48.700;9.210;2023-04-19T07:33:03;10.73;;;7.60;;
32138;SDS011;18644;48.700;9.210;2023-04-19T07:35:32;12.18;;;7.63;;
32138;SDS011;18644;48.700;9.210;2023-04-19T07:38:00;10.93;;;7.85;;
32138;SDS011;18644;48.700;9.210;2023-04-19T07:40:27;11.93;;;7.63;;
32138;SDS011;18644;48.700;9.210;2023-04-19T07:42:55;9.05;;;6.90;;
32138;SDS011;18644;48.700;9.210;2023-04-19T07:45:22;9.15;;;6.68;;
32138;SDS011;18644;48.700;9.210;2023-04-19T07:47:49;9.35;;;7.20;;
32138;SDS011;18644;48.700;9.210;2023-04-19T07:50:16;11.00;;;6.93;;
32138;SDS011;18644;48.700;9.210;2023-04-19T07:52:43;10.80;;;7.68;;
32138;SDS011;18644;48.700;9.210;2023-04-19T07:55:10;13.63;;;8.23;;
32138;SDS011;18644;48.700;9.210;2023-04-19T07:57:37;11.30;;;7.78;;
32138;SDS011;18644;48.700;9.210;2023-04-19T08:00:06;11.50;;;7.57;;
32138;SDS011;18644;48.700;9.210;2023-04-19T08:02:35;9.77;;;6.90;;
32138;SDS011;18644;48.700;9.210;2023-04-19T08:05:01;10.50;;;7.35;;
32138;SDS011;18644;48.700;9.210;2023-04-19T08:07:29;10.45;;;7.30;;
32138;SDS011;18644;48.700;9.210;2023-04-19T08:09:56;10.38;;;6.88;;
32138;SDS011;18644;48.700;9.210;2023-04-19T08:12:22;9.18;;;6.38;;
32138;SDS011;18644;48.700;9.210;2023-04-19T08:14:49;12.07;;;8.02;;
32138;SDS011;18644;48.700;9.210;2023-04-19T08:17:18;10.43;;;7.30;;
32138;SDS011;18644;48.700;9.210;2023-04-19T08:19:48;9.18;;;6.50;;
32138;SDS011;18644;48.700;9.210;2023-04-19T08:22:15;9.73;;;7.32;;
32138;SDS011;18644;48.700;9.210;2023-04-19T08:24:42;10.05;;;6.90;;
32138;SDS011;18644;48.700;9.210;2023-04-19T08:27:10;14.57;;;6.53;;
32138;SDS011;18644;48.700;9.210;2023-04-19T08:29:37;10.50;;;6.65;;
32138;SDS011;18644;48.700;9.210;2023-04-19T08:32:04;8.52;;;6.63;;
32138;SDS011;18644;48.700;9.210;2023-04-19T08:34:34;8.68;;;6.18;;
32138;SDS011;18644;48.700;9.210;2023-04-19T08:37:02;10.13;;;6.78;;
32138;SDS011;18644;48.700;9.210;2023-04-19T08:39:29;10.75;;;7.18;;
32138;SDS011;18644;48.700;9.210;2023-04-19T08:41:58;10.48;;;7.38;;
32138;SDS011;18644;48.700;9.210;2023-04-19T08:44:31;11.32;;;6.28;;
32138;SDS011;18644;48.700;9.210;2023-04-19T08:46:59;7.97;;;5.68;;
32138;SDS011;18644;48.700;9.210;2023-04-19T08:49:26;8.98;;;6.78;;
32138;SDS011;18644;48.700;9.210;2023-04-19T08:51:56;10.05;;;7.35;;
32138;SDS011;18644;48.700;9.210;2023-04-19T08:54:23;9.07;;;6.07;;
32138;SDS011;18644;48.700;9.210;2023-04-19T08:56:51;9.15;;;6.13;;
32138;SDS011;18644;48.700;9.210;2023-04-19T08:59:18;9.20;;;5.85;;
32138;SDS011;18644;48.700;9.210;2023-04-19T09:01:45;8.82;;;5.82;;
32138;SDS011;18644;48.700;9.210;2023-04-19T09:04:12;5.82;;;5.07;;
32138;SDS011;18644;48.700;9.210;2023-04-19T09:06:39;7.40;;;5.53;;
32138;SDS011;18644;48.700;9.210;2023-04-19T09:09:14;5.60;;;4.93;;
32138;SDS011;18644;48.700;9.210;2023-04-19T09:11:44;6.10;;;4.95;;
32138;SDS011;18644;48.700;9.210;2023-04-19T09:14:12;7.82;;;5.03;;
32138;SDS011;18644;48.700;9.210;2023-04-19T09:16:41;6.65;;;4.80;;
32138;SDS011;18644;48.700;9.210;2023-04-19T09:19:08;10.60;;;6.00;;
32138;SDS011;18644;48.700;9.210;2023-04-19T09:21:36;5.97;;;5.03;;
32138;SDS011;18644;48.700;9.210;2023-04-19T09:24:04;7.47;;;4.90;;
32138;SDS011;18644;48.700;9.210;2023-04-19T09:26:34;5.20;;;4.47;;
32138;SDS011;18644;48.700;9.210;2023-04-19T09:29:02;9.30;;;5.60;;
32138;SDS011;18644;48.700;9.210;2023-04-19T09:31:31;6.88;;;5.10;;
32138;SDS011;18644;48.700;9.210;2023-04-19T09:34:11;5.78;;;4.90;;
32138;SDS011;18644;48.700;9.210;2023-04-19T09:36:39;7.05;;;4.85;;
32138;SDS011;18644;48.700;9.210;2023-04-19T09:39:06;7.15;;;4.80;;
32138;SDS011;18644;48.700;9.210;2023-04-19T09:41:35;7.22;;;5.00;;
32138;SDS011;18644;48.700;9.210;2023-04-19T09:44:17;6.55;;;4.45;;
32138;SDS011;18644;48.700;9.210;2023-04-19T09:46:45;5.32;;;4.05;;
32138;SDS011;18644;48.700;9.210;2023-04-19T09:49:17;5.72;;;4.63;;
32138;SDS011;18644;48.700;9.210;2023-04-19T09:51:48;5.30;;;3.92;;
32138;SDS011;18644;48.700;9.210;2023-04-19T09:54:16;7.20;;;4.35;;
32138;SDS011;18644;48.700;9.210;2023-04-19T09:56:47;6.50;;;4.78;;
32138;SDS011;18644;48.700;9.210;2023-04-19T09:59:14;4.30;;;3.72;;
32138;SDS011;18644;48.700;9.210;2023-04-19T10:01:42;5.47;;;4.25;;
32138;SDS011;18644;48.700;9.210;2023-04-19T10:04:10;6.55;;;4.28;;
32138;SDS011;18644;48.700;9.210;2023-04-19T10:06:45;5.55;;;4.47;;
32138;SDS011;18644;48.700;9.210;2023-04-19T10:09:14;7.85;;;4.60;;
32138;SDS011;18644;48.700;9.210;2023-04-19T10:11:46;6.15;;;4.50;;
32138;SDS011;18644;48.700;9.210;2023-04-19T10:14:16;11.45;;;4.32;;
32138;SDS011;18644;48.700;9.210;2023-04-19T10:16:48;6.30;;;4.57;;
32138;SDS011;18644;48.700;9.210;2023-04-19T10:19:17;7.65;;;4.38;;
32138;SDS011;18644;48.700;9.210;2023-04-19T10:21:46;6.55;;;4.88;;
32138;SDS011;18644;48.700;9.210;2023-04-19T10:24:15;6.20;;;4.75;;
32138;SDS011;18644;48.700;9.210;2023-04-19T10:29:53;6.55;;;5.20;;
32138;SDS011;18644;48.700;9.210;2023-04-19T10:32:22;6.78;;;4.47;;
32138;SDS011;18644;48.700;9.210;2023-04-19T10:34:50;5.25;;;4.65;;
32138;SDS011;18644;48.700;9.210;2023-04-19T10:37:20;6.60;;;4.50;;
32138;SDS011;18644;48.700;9.210;2023-04-19T10:39:50;6.65;;;4.40;;
32138;SDS011;18644;48.700;9.210;2023-04-19T10:42:18;9.00;;;4.90;;
32138;SDS011;18644;48.700;9.210;2023-04-19T10:47:58;5.22;;;3.97;;
32138;SDS011;18644;48.700;9.210;2023-04-19T10:50:27;6.22;;;4.22;;
32138;SDS011;18644;48.700;9.210;2023-04-19T10:52:54;5.25;;;4.47;;
32138;SDS011;18644;48.700;9.210;2023-04-19T10:55:21;6.40;;;5.13;;
32138;SDS011;18644;48.700;9.210;2023-04-19T10:58:02;8.13;;;4.95;;
32138;SDS011;18644;48.700;9.210;2023-04-19T11:00:31;4.82;;;3.60;;
32138;SDS011;18644;48.700;9.210;2023-04-19T11:03:00;7.97;;;4.68;;
32138;SDS011;18644;48.700;9.210;2023-04-19T11:06:26;6.43;;;4.45;;
32138;SDS011;18644;48.700;9.210;2023-04-19T11:08:53;5.32;;;4.20;;
32138;SDS011;18644;48.700;9.210;2023-04-19T11:11:20;4.95;;;4.18;;
32138;SDS011;18644;48.700;9.210;2023-04-19T11:13:48;7.65;;;5.10;;
32138;SDS011;18644;48.700;9.210;2023-04-19T11:16:17;6.45;;;4.82;;
32138;SDS011;18644;48.700;9.210;2023-04-19T11:18:44;7.38;;;4.50;;
32138;SDS011;18644;48.700;9.210;2023-04-19T11:21:11;8.23;;;4.95;;
32138;SDS011;18644;48.700;9.210;2023-04-19T11:23:38;5.25;;;4.03;;
32138;SDS011;18644;48.700;9.210;2023-04-19T11:26:05;7.88;;;5.00;;
32138;SDS011;18644;48.700;9.210;2023-04-19T11:28:35;6.22;;;4.50;;
32138;SDS011;18644;48.700;9.210;2023-04-19T11:31:05;9.10;;;4.57;;
32138;SDS011;18644;48.700;9.210;2023-04-19T11:33:32;5.50;;;4.40;;
32138;SDS011;18644;48.700;9.210;2023-04-19T11:35:59;6.25;;;4.97;;
32138;SDS011;18644;48.700;9.210;2023-04-19T11:38:26;5.47;;;4.78;;
32138;SDS011;18644;48.700;9.210;2023-04-19T11:40:57;6.35;;;4.65;;
32138;SDS011;18644;48.700;9.210;2023-04-19T11:43:30;6.78;;;4.70;;
32138;SDS011;18644;48.700;9.210;2023-04-19T11:46:04;7.57;;;4.70;;
32138;SDS011;18644;48.700;9.210;2023-04-19T11:48:32;6.53;;;4.65;;
32138;SDS011;18644;48.700;9.210;2023-04-19T11:51:00;8.93;;;5.57;;
32138;SDS011;18644;48.700;9.210;2023-04-19T11:53:28;5.85;;;4.55;;
32138;SDS011;18644;48.700;9.210;2023-04-19T11:56:02;6.25;;;5.13;;
32138;SDS011;18644;48.700;9.210;2023-04-19T11:58:31;7.03;;;4.85;;
32138;SDS011;18644;48.700;9.210;2023-04-19T12:01:06;7.72;;;5.20;;
32138;SDS011;18644;48.700;9.210;2023-04-19T12:03:38;7.20;;;5.03;;
32138;SDS011;18644;48.700;9.210;2023-04-19T12:06:09;7.47;;;5.43;;
32138;SDS011;18644;48.700;9.210;2023-04-19T12:08:42;7.78;;;5.53;;
32138;SDS011;18644;48.700;9.210;2023-04-19T12:11:12;6.80;;;5.32;;
32138;SDS011;18644;48.700;9.210;2023-04-19T12:13:39;7.45;;;5.38;;
32138;SDS011;18644;48.700;9.210;2023-04-19T12:16:09;7.40;;;5.22;;
32138;SDS011;18644;48.700;9.210;2023-04-19T12:18:41;9.45;;;6.22;;
32138;SDS011;18644;48.700;9.210;2023-04-19T12:21:10;7.28;;;5.70;;
32138;SDS011;18644;48.700;9.210;2023-04-19T12:23:38;7.13;;;5.75;;
32138;SDS011;18644;48.700;9.210;2023-04-19T12:26:05;7.90;;;5.78;;
32138;SDS011;18644;48.700;9.210;2023-04-19T12:28:32;7.93;;;5.93;;
32138;SDS011;18644;48.700;9.210;2023-04-19T12:30:59;8.60;;;6.47;;
32138;SDS011;18644;48.700;9.210;2023-04-19T12:33:27;9.43;;;6.55;;
32138;SDS011;18644;48.700;9.210;2023-04-19T12:35:54;10.93;;;7.00;;
32138;SDS011;18644;48.700;9.210;2023-04-19T12:38:21;7.47;;;5.70;;
32138;SDS011;18644;48.700;9.210;2023-04-19T12:40:48;6.85;;;5.93;;
32138;SDS011;18644;48.700;9.210;2023-04-19T12:43:14;9.93;;;5.95;;
32138;SDS011;18644;48.700;9.210;2023-04-19T12:45:41;10.75;;;8.23;;
32138;SDS011;18644;48.700;9.210;2023-04-19T12:48:08;10.15;;;7.75;;
32138;SDS011;18644;48.700;9.210;2023-04-19T12:50:36;10.45;;;7.35;;
32138;SDS011;18644;48.700;9.210;2023-04-19T12:53:03;14.18;;;8.07;;
32138;SDS011;18644;48.700;9.210;2023-04-19T12:55:31;10.93;;;7.40;;
32138;SDS011;18644;48.700;9.210;2023-04-19T12:57:58;8.02;;;6.60;;
32138;SDS011;18644;48.700;9.210;2023-04-19T13:00:24;10.70;;;7.28;;
32138;SDS011;18644;48.700;9.210;2023-04-19T13:02:52;11.30;;;7.05;;
32138;SDS011;18644;48.700;9.210;2023-04-19T13:05:19;10.32;;;7.70;;
32138;SDS011;18644;48.700;9.210;2023-04-19T13:07:47;11.88;;;8.80;;
32138;SDS011;18644;48.700;9.210;2023-04-19T13:10:14;10.88;;;7.28;;
32138;SDS011;18644;48.700;9.210;2023-04-19T13:12:41;14.02;;;8.57;;
32138;SDS011;18644;48.700;9.210;2023-04-19T13:15:08;11.15;;;7.65;;
32138;SDS011;18644;48.700;9.210;2023-04-19T13:17:36;10.70;;;8.07;;
32138;SDS011;18644;48.700;9.210;2023-04-19T13:20:03;11.13;;;7.78;;
32138;SDS011;18644;48.700;9.210;2023-04-19T13:22:34;10.63;;;7.68;;
32138;SDS011;18644;48.700;9.210;2023-04-19T13:25:02;13.23;;;8.88;;
32138;SDS011;18644;48.700;9.210;2023-04-19T13:27:30;12.68;;;8.00;;
32138;SDS011;18644;48.700;9.210;2023-04-19T13:29:57;11.23;;;7.88;;
32138;SDS011;18644;48.700;9.210;2023-04-19T13:32:23;9.90;;;7.32;;
32138;SDS011;18644;48.700;9.210;2023-04-19T13:34:50;12.00;;;8.23;;
32138;SDS011;18644;48.700;9.210;2023-04-19T13:37:17;10.30;;;7.22;;
32138;SDS011;18644;48.700;9.210;2023-04-19T13:39:44;11.05;;;7.63;;
32138;SDS011;18644;48.700;9.210;2023-04-19T13:42:12;9.50;;;6.60;;
32138;SDS011;18644;48.700;9.210;2023-04-19T13:44:39;14.48;;;8.23;;
32138;SDS011;18644;48.700;9.210;2023-04-19T13:47:06;10.25;;;7.40;;
32138;SDS011;18644;48.700;9.210;2023-04-19T13:49:33;9.20;;;6.78;;
32138;SDS011;18644;48.700;9.210;2023-04-19T13:52:00;11.43;;;7.47;;
32138;SDS011;18644;48.700;9.210;2023-04-19T13:54:27;10.43;;;6.93;;
32138;SDS011;18644;48.700;9.210;2023-04-19T13:56:53;9.93;;;6.70;;
32138;SDS011;18644;48.700;9.210;2023-04-19T13:59:22;8.82;;;6.15;;
32138;SDS011;18644;48.700;9.210;2023-04-19T14:01:50;8.60;;;6.03;;
32138;SDS011;18644;48.700;9.210;2023-04-19T14:04:19;9.45;;;7.10;;
32138;SDS011;18644;48.700;9.210;2023-04-19T14:06:46;10.02;;;6.78;;
32138;SDS011;18644;48.700;9.210;2023-04-19T14:09:13;10.70;;;6.53;;
32138;SDS011;18644;48.700;9.210;2023-04-19T14:11:40;11.82;;;6.72;;
32138;SDS011;18644;48.700;9.210;2023-04-19T14:14:07;9.35;;;6.57;;
32138;SDS011;18644;48.700;9.210;2023-04-19T14:16:35;10.25;;;6.55;;
32138;SDS011;18644;48.700;9.210;2023-04-19T14:19:02;10.13;;;7.15;;
32138;SDS011;18644;48.700;9.210;2023-04-19T14:21:29;8.75;;;6.05;;
32138;SDS011;18644;48.700;9.210;2023-04-19T14:23:56;8.43;;;5.97;;
32138;SDS011;18644;48.700;9.210;2023-04-19T14:26:23;11.68;;;7.10;;
32138;SDS011;18644;48.700;9.210;2023-04-19T14:28:50;7.93;;;5.95;;
32138;SDS011;18644;48.700;9.210;2023-04-19T14:31:17;9.15;;;6.30;;
32138;SDS011;18644;48.700;9.210;2023-04-19T14:33:45;8.15;;;6.07;;
32138;SDS011;18644;48.700;9.210;2023-04-19T14:36:12;8.45;;;5.60;;
32138;SDS011;18644;48.700;9.210;2023-04-19T14:38:40;8.23;;;5.90;;
32138;SDS011;18644;48.700;9.210;2023-04-19T14:41:06;9.10;;;5.95;;
32138;SDS011;18644;48.700;9.210;2023-04-19T14:43:33;10.65;;;5.80;;
32138;SDS011;18644;48.700;9.210;2023-04-19T14:46:00;9.20;;;5.68;;
32138;SDS011;18644;48.700;9.210;2023-04-19T14:48:27;9.02;;;6.40;;
32138;SDS011;18644;48.700;9.210;2023-04-19T14:50:55;7.35;;;6.03;;
32138;SDS011;18644;48.700;9.210;2023-04-19T14:53:22;10.30;;;6.03;;